createdAt,value
2023-05-02T00:01:25.449Z,12.60
2023-05-02T00:03:52.104Z,12.73
2023-05-02T00:06:19.236Z,12.63
2023-05-02T00:08:45.928Z,13.87
2023-05-02T00:11:12.548Z,13.00
2023-05-02T00:13:39.177Z,13.07
2023-05-02T00:16:06.321Z,13.73
2023-05-02T00:18:32.988Z,14.73
2023-05-02T00:20:59.631Z,13.97
2023-05-02T00:23:26.271Z,13.93
2023-05-02T00:25:52.848Z,15.10
2023-05-02T00:28:19.423Z,15.70
2023-05-02T00:30:46.813Z,15.43
2023-05-02T00:33:15.224Z,14.87
2023-05-02T00:35:42.076Z,15.20
2023-05-02T00:38:08.724Z,14.93
2023-05-02T00:40:49.768Z,15.30
2023-05-02T00:43:19.202Z,15.00
2023-05-02T00:45:46.674Z,15.30
2023-05-02T00:48:14.080Z,15.20
2023-05-02T00:50:43.241Z,15.13
2023-05-02T00:53:10.859Z,15.40
2023-05-02T00:55:37.957Z,14.53
2023-05-02T00:58:14.378Z,14.63
2023-05-02T01:01:02.280Z,15.83
2023-05-02T01:03:47.769Z,15.40
2023-05-02T01:06:36.789Z,14.50
2023-05-02T01:09:40.972Z,15.07
2023-05-02T01:12:20.111Z,14.70
2023-05-02T01:14:52.861Z,14.30
2023-05-02T01:17:20.555Z,15.33
2023-05-02T01:19:54.905Z,15.80
2023-05-02T01:22:24.731Z,14.50
2023-05-02T01:25:20.882Z,14.63
2023-05-02T01:27:56.638Z,13.27
2023-05-02T01:30:27.061Z,14.17
2023-05-02T01:32:55.931Z,14.03
2023-05-02T01:35:24.303Z,14.47
2023-05-02T01:37:53.478Z,12.93
2023-05-02T01:40:22.880Z,13.27
2023-05-02T01:42:51.975Z,12.10
2023-05-02T01:45:21.321Z,11.80
2023-05-02T01:47:48.961Z,11.27
2023-05-02T01:50:20.344Z,9.63
2023-05-02T01:52:49.781Z,8.83
2023-05-02T01:55:18.423Z,9.73
2023-05-02T01:57:47.157Z,9.73
2023-05-02T02:00:17.711Z,9.67
2023-05-02T02:02:46.566Z,10.07
2023-05-02T02:05:14.258Z,9.17
2023-05-02T02:07:40.793Z,7.77
2023-05-02T02:10:07.941Z,8.13
2023-05-02T02:12:43.809Z,7.90
2023-05-02T02:15:21.888Z,8.10
2023-05-02T02:18:01.154Z,7.30
2023-05-02T02:20:32.512Z,8.10
2023-05-02T02:23:03.396Z,6.97
2023-05-02T02:25:30.149Z,6.50
2023-05-02T02:27:57.355Z,6.70
2023-05-02T02:30:24.005Z,7.57
2023-05-02T02:32:50.801Z,6.37
2023-05-02T02:35:17.523Z,5.70
2023-05-02T02:37:57.954Z,5.60
2023-05-02T02:40:37.354Z,4.67
2023-05-02T02:43:15.688Z,4.40
2023-05-02T02:46:03.281Z,3.63
2023-05-02T02:48:34.986Z,2.60
2023-05-02T02:51:07.293Z,3.20
2023-05-02T02:53:45.156Z,3.20
2023-05-02T02:56:16.678Z,4.00
2023-05-02T02:59:29.429Z,4.00
2023-05-02T03:02:10.010Z,3.20
2023-05-02T03:04:42.314Z,3.20
2023-05-02T03:07:09.595Z,3.00
2023-05-02T03:09:46.112Z,3.30
2023-05-02T03:12:13.487Z,3.03
2023-05-02T03:14:40.844Z,3.27
2023-05-02T03:17:12.032Z,2.87
2023-05-02T03:19:38.985Z,3.33
2023-05-02T03:22:06.134Z,2.80
2023-05-02T03:24:32.691Z,3.30
2023-05-02T03:26:59.731Z,3.77
2023-05-02T03:29:26.984Z,3.00
2023-05-02T03:31:53.601Z,3.87
2023-05-02T03:34:22.113Z,3.83
2023-05-02T03:36:48.884Z,4.60
2023-05-02T03:39:15.751Z,3.70
2023-05-02T03:41:43.940Z,3.33
2023-05-02T03:44:10.785Z,3.77
2023-05-02T03:46:37.752Z,3.63
2023-05-02T03:49:04.420Z,3.63
2023-05-02T03:51:30.989Z,3.37
2023-05-02T03:53:58.608Z,3.30
2023-05-02T03:56:25.204Z,4.47
2023-05-02T03:58:51.756Z,4.73
2023-05-02T04:01:18.496Z,5.07
2023-05-02T04:03:45.283Z,3.40
2023-05-02T04:06:13.372Z,3.33
2023-05-02T04:08:40.139Z,2.77
2023-05-02T04:11:07.319Z,3.70
2023-05-02T04:13:33.986Z,3.70
2023-05-02T04:16:00.683Z,3.87
2023-05-02T04:18:27.534Z,3.10
2023-05-02T04:20:55.503Z,2.87
2023-05-02T04:23:22.145Z,3.83
2023-05-02T04:25:53.766Z,3.23
2023-05-02T04:28:23.427Z,2.87
2023-05-02T04:30:50.406Z,3.17
2023-05-02T04:33:18.639Z,3.27
2023-05-02T04:35:45.417Z,2.77
2023-05-02T04:38:12.037Z,2.80
2023-05-02T04:40:38.889Z,2.47
2023-05-02T04:43:05.453Z,3.03
2023-05-02T04:45:32.704Z,2.73
2023-05-02T04:47:59.434Z,2.60
2023-05-02T04:50:28.373Z,3.10
2023-05-02T04:52:55.048Z,2.60
2023-05-02T04:55:21.795Z,2.67
2023-05-02T04:57:48.479Z,2.60
2023-05-02T05:00:15.644Z,3.17
2023-05-02T05:02:43.439Z,3.13
2023-05-02T05:05:10.310Z,2.67
2023-05-02T05:07:36.954Z,3.07
2023-05-02T05:10:03.996Z,2.80
2023-05-02T05:12:30.613Z,3.63
2023-05-02T05:14:57.503Z,2.50
2023-05-02T05:17:24.174Z,3.37
2023-05-02T05:19:50.874Z,3.07
2023-05-02T05:22:17.399Z,3.27
2023-05-02T05:24:51.867Z,2.40
2023-05-02T05:27:18.526Z,3.53
2023-05-02T05:29:45.203Z,3.10
2023-05-02T05:32:11.839Z,3.20
2023-05-02T05:34:38.591Z,2.77
2023-05-02T05:37:05.239Z,2.50
2023-05-02T05:39:32.781Z,3.10
2023-05-02T05:41:59.961Z,2.87
2023-05-02T05:44:26.696Z,2.93
2023-05-02T05:46:53.349Z,2.80
2023-05-02T05:49:19.934Z,3.27
2023-05-02T05:51:47.812Z,2.37
2023-05-02T05:54:14.454Z,3.03
2023-05-02T05:56:41.143Z,2.40
2023-05-02T05:59:08.077Z,2.80
2023-05-02T06:01:36.012Z,2.80
2023-05-02T06:04:06.784Z,2.57
2023-05-02T06:06:33.776Z,2.57
2023-05-02T06:09:00.980Z,2.70
2023-05-02T06:11:27.803Z,2.87
2023-05-02T06:13:54.466Z,2.67
2023-05-02T06:16:21.252Z,2.93
2023-05-02T06:18:48.013Z,3.13
2023-05-02T06:21:14.625Z,2.57
2023-05-02T06:23:41.262Z,3.27
2023-05-02T06:26:07.916Z,2.63
2023-05-02T06:28:34.582Z,2.40
2023-05-02T06:31:03.329Z,2.27
2023-05-02T06:33:30.912Z,2.13
2023-05-02T06:35:59.220Z,2.50
2023-05-02T06:38:27.297Z,3.20
2023-05-02T06:40:54.025Z,2.80
2023-05-02T06:43:20.698Z,2.10
2023-05-02T06:45:47.298Z,2.00
2023-05-02T06:48:14.151Z,2.20
2023-05-02T06:50:40.851Z,2.23
2023-05-02T06:53:07.442Z,2.57
2023-05-02T06:55:34.048Z,2.17
2023-05-02T06:58:00.978Z,2.07
2023-05-02T07:00:27.556Z,2.20
2023-05-02T07:02:54.456Z,3.07
2023-05-02T07:05:21.351Z,2.37
2023-05-02T07:07:47.886Z,2.57
2023-05-02T07:10:14.440Z,2.07
2023-05-02T07:12:41.220Z,2.43
2023-05-02T07:15:08.282Z,2.70
2023-05-02T07:17:34.941Z,2.80
2023-05-02T07:20:02.366Z,2.40
2023-05-02T07:22:29.232Z,2.23
2023-05-02T07:25:03.462Z,1.93
2023-05-02T07:27:30.301Z,2.30
2023-05-02T07:29:56.855Z,2.93
2023-05-02T07:32:26.111Z,2.10
2023-05-02T07:34:57.153Z,2.03
2023-05-02T07:37:24.029Z,2.03
2023-05-02T07:39:50.738Z,1.57
2023-05-02T07:42:17.350Z,1.67
2023-05-02T07:44:43.996Z,1.70
2023-05-02T07:47:10.852Z,1.73
2023-05-02T07:49:37.683Z,1.87
2023-05-02T07:52:04.802Z,1.83
2023-05-02T07:54:31.610Z,1.57
2023-05-02T07:57:02.423Z,1.40
2023-05-02T07:59:31.215Z,1.47
2023-05-02T08:01:58.011Z,1.70
2023-05-02T08:04:25.103Z,1.90
2023-05-02T08:06:51.946Z,1.93
2023-05-02T08:09:18.585Z,1.67
2023-05-02T08:11:45.375Z,1.77
2023-05-02T08:14:11.911Z,1.90
2023-05-02T08:16:38.975Z,1.60
2023-05-02T08:19:05.887Z,1.50
2023-05-02T08:21:32.775Z,2.37
2023-05-02T08:23:59.906Z,1.40
2023-05-02T08:26:27.446Z,1.77
2023-05-02T08:28:55.149Z,1.60
2023-05-02T08:31:22.129Z,1.50
2023-05-02T08:33:48.740Z,2.20
2023-05-02T08:36:17.048Z,1.77
2023-05-02T08:38:44.871Z,1.30
2023-05-02T08:41:20.635Z,1.60
2023-05-02T08:43:47.685Z,1.93
2023-05-02T08:46:17.469Z,1.67
2023-05-02T08:48:48.287Z,1.40
2023-05-02T08:51:16.986Z,1.40
2023-05-02T08:53:44.175Z,1.30
2023-05-02T08:56:12.744Z,1.87
2023-05-02T08:58:40.779Z,1.93
2023-05-02T09:01:19.243Z,1.60
2023-05-02T09:03:47.721Z,1.50
2023-05-02T09:06:19.552Z,1.77
2023-05-02T09:08:49.481Z,1.43
2023-05-02T09:11:17.126Z,1.60
2023-05-02T09:13:48.801Z,1.70
2023-05-02T09:16:18.102Z,1.93
2023-05-02T09:18:53.057Z,1.80
2023-05-02T09:21:22.080Z,2.53
2023-05-02T09:23:50.859Z,1.50
2023-05-02T09:26:35.303Z,1.60
2023-05-02T09:29:04.315Z,1.70
2023-05-02T09:34:14.136Z,1.40
2023-05-02T09:36:45.662Z,1.43
2023-05-02T09:39:17.484Z,1.40
2023-05-02T09:41:46.896Z,1.33
2023-05-02T09:44:20.471Z,1.60
2023-05-02T09:46:49.159Z,1.30
2023-05-02T09:49:19.618Z,1.20
2023-05-02T09:51:47.799Z,1.20
2023-05-02T09:54:36.448Z,1.33
2023-05-02T09:57:03.914Z,1.30
2023-05-02T09:59:30.765Z,1.53
2023-05-02T10:02:03.330Z,1.10
2023-05-02T10:04:32.908Z,1.07
2023-05-02T10:07:00.457Z,1.00
2023-05-02T10:09:29.998Z,1.13
2023-05-02T10:11:56.983Z,1.13
2023-05-02T10:14:27.826Z,1.40
2023-05-02T10:17:12.729Z,1.60
2023-05-02T10:19:44.408Z,1.30
2023-05-02T10:22:12.769Z,1.37
2023-05-02T10:24:40.806Z,1.23
2023-05-02T10:27:08.623Z,1.83
2023-05-02T10:29:36.366Z,1.57
2023-05-02T10:32:04.845Z,1.80
2023-05-02T10:34:33.412Z,1.53
2023-05-02T10:37:02.363Z,1.87
2023-05-02T10:39:30.026Z,1.80
2023-05-02T10:41:59.227Z,2.03
2023-05-02T10:44:40.733Z,1.93
2023-05-02T10:47:24.635Z,1.60
2023-05-02T10:49:51.786Z,1.50
2023-05-02T10:52:38.368Z,1.30
2023-05-02T10:55:19.875Z,1.40
2023-05-02T10:58:02.069Z,1.10
2023-05-02T11:00:33.975Z,0.60
2023-05-02T11:03:01.835Z,1.00
2023-05-02T11:05:28.850Z,0.97
2023-05-02T11:08:19.303Z,0.83
2023-05-02T11:10:47.434Z,1.00
2023-05-02T11:13:14.136Z,1.10
2023-05-02T11:15:41.023Z,1.10
2023-05-02T11:18:10.187Z,1.20
2023-05-02T11:20:39.695Z,1.20
2023-05-02T11:23:15.606Z,0.90
2023-05-02T11:25:44.139Z,1.20
2023-05-02T11:28:40.394Z,1.10
2023-05-02T11:31:27.019Z,0.93
2023-05-02T11:33:57.935Z,0.90
2023-05-02T11:36:32.522Z,1.30
2023-05-02T11:39:00.379Z,0.87
2023-05-02T11:41:43.062Z,1.00
2023-05-02T11:44:10.975Z,1.43
2023-05-02T11:46:39.682Z,2.20
2023-05-02T11:49:09.657Z,1.30
2023-05-02T11:51:37.555Z,1.10
2023-05-02T11:54:04.678Z,1.10
2023-05-02T11:56:31.660Z,0.90
2023-05-02T11:59:03.617Z,1.10
2023-05-02T12:01:30.694Z,1.00
2023-05-02T12:04:04.612Z,0.77
2023-05-02T12:06:31.559Z,1.30
2023-05-02T12:09:14.268Z,1.13
2023-05-02T12:11:41.443Z,1.40
2023-05-02T12:14:08.229Z,1.17
2023-05-02T12:16:35.464Z,1.00
2023-05-02T12:19:02.581Z,1.73
2023-05-02T12:21:30.232Z,1.00
2023-05-02T12:23:57.595Z,0.90
2023-05-02T12:26:27.710Z,1.10
2023-05-02T12:28:55.253Z,2.03
2023-05-02T12:31:22.902Z,1.43
2023-05-02T12:33:51.156Z,1.30
2023-05-02T12:36:19.426Z,1.10
2023-05-02T12:38:55.084Z,1.10
2023-05-02T12:41:43.914Z,0.97
2023-05-02T12:44:10.671Z,1.17
2023-05-02T12:46:37.648Z,1.10
2023-05-02T12:49:06.399Z,1.20
2023-05-02T12:51:34.622Z,1.40
2023-05-02T12:54:01.606Z,1.73
2023-05-02T12:56:32.390Z,0.93
2023-05-02T12:59:05.267Z,0.90
2023-05-02T13:01:34.553Z,1.13
2023-05-02T13:04:01.507Z,0.97
2023-05-02T13:06:28.257Z,2.30
2023-05-02T13:08:54.907Z,1.10
2023-05-02T13:11:21.654Z,1.10
2023-05-02T13:13:48.368Z,0.80
2023-05-02T13:16:15.077Z,2.17
2023-05-02T13:18:42.068Z,2.30
2023-05-02T13:21:08.754Z,1.27
2023-05-02T13:23:35.332Z,1.43
2023-05-02T13:26:01.918Z,1.07
2023-05-02T13:28:30.515Z,1.80
2023-05-02T13:30:57.161Z,1.37
2023-05-02T13:33:23.859Z,1.07
2023-05-02T13:35:50.551Z,1.30
2023-05-02T13:38:17.096Z,1.20
2023-05-02T13:40:43.808Z,1.40
2023-05-02T13:43:10.352Z,1.00
2023-05-02T13:45:37.088Z,1.40
2023-05-02T13:48:03.977Z,1.20
2023-05-02T13:50:30.704Z,0.80
2023-05-02T13:52:57.270Z,1.17
2023-05-02T13:55:23.930Z,1.37
2023-05-02T13:57:50.654Z,1.00
2023-05-02T14:00:17.944Z,1.20
2023-05-02T14:02:47.126Z,1.30
2023-05-02T14:05:14.146Z,1.30
2023-05-02T14:07:40.753Z,1.47
2023-05-02T14:10:07.997Z,1.27
2023-05-02T14:12:34.543Z,1.17
2023-05-02T14:15:01.588Z,1.23
2023-05-02T14:17:28.182Z,0.90
2023-05-02T14:19:54.885Z,1.20
2023-05-02T14:22:21.442Z,1.20
2023-05-02T14:24:48.048Z,1.20
2023-05-02T14:27:18.544Z,1.20
2023-05-02T14:29:48.806Z,1.20
2023-05-02T14:32:15.490Z,1.20
2023-05-02T14:34:42.233Z,1.10
2023-05-02T14:37:09.395Z,2.40
2023-05-02T14:39:36.998Z,1.30
2023-05-02T14:42:04.578Z,1.30
2023-05-02T14:44:31.832Z,1.60
2023-05-02T14:46:58.633Z,1.13
2023-05-02T14:49:25.641Z,1.20
2023-05-02T14:51:52.652Z,1.43
2023-05-02T14:54:20.430Z,1.00
2023-05-02T14:56:48.357Z,0.87
2023-05-02T14:59:14.975Z,1.00
2023-05-02T15:01:41.650Z,1.33
2023-05-02T15:04:08.770Z,1.23
2023-05-02T15:06:36.350Z,1.00
2023-05-02T15:09:03.607Z,0.83
2023-05-02T15:11:30.436Z,1.33
2023-05-02T15:13:59.211Z,0.80
2023-05-02T15:16:27.580Z,1.00
2023-05-02T15:18:54.384Z,0.90
2023-05-02T15:21:21.512Z,1.00
2023-05-02T15:23:48.136Z,0.97
2023-05-02T15:26:14.777Z,1.90
2023-05-02T15:28:41.601Z,1.10
2023-05-02T15:31:08.326Z,1.20
2023-05-02T15:33:34.954Z,1.10
2023-05-02T15:36:01.645Z,0.95
2023-05-02T15:38:28.306Z,0.97
2023-05-02T15:41:00.220Z,1.10
2023-05-02T15:43:27.283Z,1.57
2023-05-02T15:45:56.426Z,0.77
2023-05-02T15:48:24.256Z,0.97
2023-05-02T15:50:52.559Z,1.07
2023-05-02T15:53:22.260Z,0.60
2023-05-02T15:55:50.606Z,0.70
2023-05-02T15:58:17.828Z,0.93
2023-05-02T16:00:45.256Z,1.33
2023-05-02T16:03:15.736Z,1.63
2023-05-02T16:05:42.509Z,1.35
2023-05-02T16:08:09.565Z,1.70
2023-05-02T16:10:36.774Z,1.17
2023-05-02T16:13:03.467Z,1.10
2023-05-02T16:15:30.634Z,1.20
2023-05-02T16:17:57.518Z,0.80
2023-05-02T16:20:26.017Z,1.10
2023-05-02T16:22:52.665Z,0.80
2023-05-02T16:25:19.532Z,0.90
2023-05-02T16:27:46.076Z,1.27
2023-05-02T16:30:13.309Z,1.03
2023-05-02T16:32:40.898Z,1.00
2023-05-02T16:35:10.854Z,1.23
2023-05-02T16:37:37.577Z,1.30
2023-05-02T16:40:06.195Z,1.23
2023-05-02T16:42:33.064Z,1.00
2023-05-02T16:45:00.148Z,1.17
2023-05-02T16:47:28.124Z,1.73
2023-05-02T16:49:56.063Z,1.23
2023-05-02T16:52:23.014Z,1.13
2023-05-02T16:54:49.959Z,0.93
2023-05-02T16:57:19.911Z,2.23
2023-05-02T16:59:51.299Z,1.20
2023-05-02T17:02:21.253Z,1.13
2023-05-02T17:04:49.381Z,1.60
2023-05-02T17:07:16.471Z,1.13
2023-05-02T17:09:44.444Z,1.37
2023-05-02T17:12:12.115Z,1.60
2023-05-02T17:14:41.300Z,1.83
2023-05-02T17:17:08.337Z,1.30
2023-05-02T17:19:36.059Z,1.30
2023-05-02T17:22:04.382Z,1.10
2023-05-02T17:24:31.079Z,1.07
2023-05-02T17:26:57.805Z,1.27
2023-05-02T17:29:25.996Z,1.27
2023-05-02T17:31:52.710Z,1.27
2023-05-02T17:34:19.310Z,6.77
2023-05-02T17:36:46.517Z,4.27
2023-05-02T17:39:13.715Z,1.40
2023-05-02T17:41:40.394Z,1.60
2023-05-02T17:44:07.151Z,1.13
2023-05-02T17:46:34.007Z,1.40
2023-05-02T17:49:01.130Z,1.23
2023-05-02T17:51:28.157Z,1.37
2023-05-02T17:53:55.076Z,1.20
2023-05-02T17:56:21.893Z,1.17
2023-05-02T17:58:48.739Z,1.00
2023-05-02T18:01:15.885Z,1.07
2023-05-02T18:03:42.774Z,1.23
2023-05-02T18:06:09.575Z,1.63
2023-05-02T18:08:36.232Z,1.23
2023-05-02T18:11:03.613Z,1.27
2023-05-02T18:13:30.905Z,1.83
2023-05-02T18:16:04.874Z,1.67
2023-05-02T18:18:33.222Z,1.10
2023-05-02T18:20:59.851Z,1.13
2023-05-02T18:23:26.467Z,1.30
2023-05-02T18:25:53.060Z,1.20
2023-05-02T18:28:19.860Z,1.27
2023-05-02T18:30:46.759Z,4.43
2023-05-02T18:33:13.442Z,1.10
2023-05-02T18:35:46.903Z,1.57
2023-05-02T18:38:13.653Z,1.40
2023-05-02T18:40:40.458Z,1.27
2023-05-02T18:43:07.044Z,1.40
2023-05-02T18:45:34.978Z,1.30
2023-05-02T18:48:03.126Z,1.50
2023-05-02T18:50:29.769Z,1.50
2023-05-02T18:52:56.447Z,1.33
2023-05-02T18:55:25.277Z,1.53
2023-05-02T18:57:52.090Z,1.90
2023-05-02T19:00:20.484Z,1.43
2023-05-02T19:02:47.936Z,1.50
2023-05-02T19:05:15.219Z,1.40
2023-05-02T19:07:42.508Z,1.40
2023-05-02T19:10:11.229Z,1.43
2023-05-02T19:12:38.272Z,1.20
2023-05-02T19:15:06.840Z,1.30
2023-05-02T19:17:34.062Z,1.70
2023-05-02T19:20:00.755Z,1.20
2023-05-02T19:22:27.936Z,1.60
2023-05-02T19:24:54.681Z,1.37
2023-05-02T19:27:21.270Z,1.27
2023-05-02T19:29:47.891Z,1.40
2023-05-02T19:32:15.027Z,1.20
2023-05-02T19:34:41.738Z,1.60
2023-05-02T19:37:08.490Z,1.37
2023-05-02T19:39:37.442Z,2.27
2023-05-02T19:42:04.468Z,7.37
2023-05-02T19:44:31.082Z,2.53
2023-05-02T19:46:57.646Z,1.90
2023-05-02T19:49:24.193Z,1.20
2023-05-02T19:51:50.820Z,1.60
2023-05-02T19:54:17.394Z,2.53
2023-05-02T19:56:44.117Z,1.67
2023-05-02T19:59:10.662Z,1.20
2023-05-02T20:01:37.531Z,1.67
2023-05-02T20:04:04.322Z,1.37
2023-05-02T20:06:32.193Z,1.47
2023-05-02T20:08:58.973Z,1.50
2023-05-02T20:11:26.283Z,1.40
2023-05-02T20:13:54.211Z,1.33
2023-05-02T20:16:21.343Z,1.40
2023-05-02T20:18:48.377Z,1.20
2023-05-02T20:21:15.118Z,1.00
2023-05-02T20:23:43.659Z,1.30
2023-05-02T20:26:11.718Z,1.70
2023-05-02T20:28:38.246Z,1.43
2023-05-02T20:31:05.027Z,1.80
2023-05-02T20:33:43.544Z,1.40
2023-05-02T20:36:11.249Z,1.30
2023-05-02T20:38:42.672Z,1.57
2023-05-02T20:41:12.926Z,1.70
2023-05-02T20:43:40.535Z,1.33
2023-05-02T20:46:16.601Z,1.40
2023-05-02T20:48:43.367Z,1.53
2023-05-02T20:51:10.036Z,1.50
2023-05-02T20:53:37.739Z,1.40
2023-05-02T20:56:05.074Z,1.43
2023-05-02T20:58:31.766Z,1.37
2023-05-02T21:00:58.814Z,1.60
2023-05-02T21:03:27.464Z,1.40
2023-05-02T21:05:55.976Z,1.37
2023-05-02T21:08:23.184Z,1.60
2023-05-02T21:10:50.036Z,1.30
2023-05-02T21:13:16.577Z,1.90
2023-05-02T21:15:43.334Z,9.97
2023-05-02T21:18:09.979Z,1.80
2023-05-02T21:20:38.344Z,1.70
2023-05-02T21:23:05.026Z,1.23
2023-05-02T21:25:31.704Z,1.40
2023-05-02T21:27:58.257Z,1.40
2023-05-02T21:30:25.154Z,1.83
2023-05-02T21:32:51.821Z,1.43
2023-05-02T21:35:18.461Z,2.00
2023-05-02T21:37:45.073Z,1.47
2023-05-02T21:40:12.336Z,1.77
2023-05-02T21:42:39.043Z,1.90
2023-05-02T21:45:06.665Z,2.00
2023-05-02T21:47:33.347Z,2.00
2023-05-02T21:50:00.369Z,1.80
2023-05-02T21:52:27.411Z,1.70
2023-05-02T21:54:54.314Z,1.83
2023-05-02T21:57:21.394Z,1.37
2023-05-02T21:59:48.338Z,1.90
2023-05-02T22:02:15.037Z,1.93
2023-05-02T22:04:41.661Z,1.50
2023-05-02T22:07:08.211Z,1.57
2023-05-02T22:09:34.757Z,1.70
2023-05-02T22:12:01.430Z,1.77
2023-05-02T22:14:37.597Z,1.33
2023-05-02T22:17:10.671Z,1.73
2023-05-02T22:19:37.716Z,1.57
2023-05-02T22:22:05.605Z,1.47
2023-05-02T22:24:32.237Z,1.63
2023-05-02T22:26:58.818Z,2.07
2023-05-02T22:29:25.364Z,1.83
2023-05-02T22:31:52.406Z,1.60
2023-05-02T22:34:19.365Z,1.60
2023-05-02T22:36:46.345Z,2.10
2023-05-02T22:39:15.761Z,1.53
2023-05-02T22:41:43.092Z,1.83
2023-05-02T22:44:09.824Z,2.00
2023-05-02T22:46:38.422Z,1.43
2023-05-02T22:49:07.827Z,2.20
2023-05-02T22:51:34.455Z,2.23
2023-05-02T22:54:02.082Z,1.47
2023-05-02T22:56:28.669Z,2.17
2023-05-02T22:58:55.239Z,2.10
2023-05-02T23:01:21.966Z,1.37
2023-05-02T23:03:49.514Z,1.63
2023-05-02T23:06:16.916Z,1.60
2023-05-02T23:08:43.516Z,1.73
2023-05-02T23:11:10.159Z,1.60
2023-05-02T23:13:36.848Z,2.03
2023-05-02T23:16:04.418Z,2.07
2023-05-02T23:18:31.106Z,2.03
2023-05-02T23:20:57.857Z,1.80
2023-05-02T23:23:27.225Z,1.67
2023-05-02T23:25:53.907Z,2.10
2023-05-02T23:28:20.619Z,1.77
2023-05-02T23:30:47.758Z,2.03
2023-05-02T23:33:15.267Z,1.73
2023-05-02T23:35:42.063Z,1.90
2023-05-02T23:38:08.692Z,2.07
2023-05-02T23:40:35.685Z,2.13
2023-05-02T23:43:02.353Z,1.63
2023-05-02T23:45:28.969Z,1.70
2023-05-02T23:47:55.990Z,1.60
2023-05-02T23:50:22.633Z,2.40
2023-05-02T23:52:49.176Z,2.10
2023-05-02T23:55:15.878Z,2.27
2023-05-02T23:57:42.745Z,2.43
